sensor_id;sensor_type;location;lat;lon;timestamp;temperature;humidity
64939;DHT22;51453;47.738;7.420;2023-03-01T00:01:36;-2.40;99.90
64939;DHT22;51453;47.738;7.420;2023-03-01T00:04:02;-2.40;99.90
64939;DHT22;51453;47.738;7.420;2023-03-01T00:06:27;-2.40;99.90
64939;DHT22;51453;47.738;7.420;2023-03-01T00:08:56;-2.40;99.90
64939;DHT22;51453;47.738;7.420;2023-03-01T00:11:29;-2.40;99.90
64939;DHT22;51453;47.738;7.420;2023-03-01T00:13:59;-2.40;99.90
64939;DHT22;51453;47.738;7.420;2023-03-01T00:16:32;-2.40;99.90
64939;DHT22;51453;47.738;7.420;2023-03-01T00:19:01;-2.50;99.90
64939;DHT22;51453;47.738;7.420;2023-03-01T00:21:28;-2.50;99.90
64939;DHT22;51453;47.738;7.420;2023-03-01T00:23:57;-2.50;99.90
64939;DHT22;51453;47.738;7.420;2023-03-01T00:26:24;-2.60;99.90
64939;DHT22;51453;47.738;7.420;2023-03-01T00:28:54;-2.60;99.90
64939;DHT22;51453;47.738;7.420;2023-03-01T00:31:24;-2.60;99.90
64939;DHT22;51453;47.738;7.420;2023-03-01T00:33:55;-2.60;99.90
64939;DHT22;51453;47.738;7.420;2023-03-01T00:36:32;-2.60;99.90
64939;DHT22;51453;47.738;7.420;2023-03-01T00:38:57;-2.60;99.90
64939;DHT22;51453;47.738;7.420;2023-03-01T00:41:23;-2.70;99.90
64939;DHT22;51453;47.738;7.420;2023-03-01T00:43:50;-2.70;99.90
64939;DHT22;51453;47.738;7.420;2023-03-01T00:46:17;-2.70;99.90
64939;DHT22;51453;47.738;7.420;2023-03-01T00:48:44;-2.70;99.90
64939;DHT22;51453;47.738;7.420;2023-03-01T00:51:22;-2.60;99.90
64939;DHT22;51453;47.738;7.420;2023-03-01T00:53:51;-2.60;99.90
64939;DHT22;51453;47.738;7.420;2023-03-01T00:56:16;-2.70;99.90
64939;DHT22;51453;47.738;7.420;2023-03-01T00:58:42;-2.60;99.90
64939;DHT22;51453;47.738;7.420;2023-03-01T01:01:20;-2.60;99.90
64939;DHT22;51453;47.738;7.420;2023-03-01T01:03:47;-2.60;99.90
64939;DHT22;51453;47.738;7.420;2023-03-01T01:06:25;-2.60;99.90
64939;DHT22;51453;47.738;7.420;2023-03-01T01:08:51;-2.60;99.90
64939;DHT22;51453;47.738;7.420;2023-03-01T01:11:17;-2.60;99.90
64939;DHT22;51453;47.738;7.420;2023-03-01T01:13:45;-2.60;99.90
64939;DHT22;51453;47.738;7.420;2023-03-01T01:16:12;-2.50;99.90
64939;DHT22;51453;47.738;7.420;2023-03-01T01:18:38;-2.60;99.90
64939;DHT22;51453;47.738;7.420;2023-03-01T01:21:06;-2.60;99.90
64939;DHT22;51453;47.738;7.420;2023-03-01T01:23:32;-2.60;99.90
64939;DHT22;51453;47.738;7.420;2023-03-01T01:26:03;-2.60;99.90
64939;DHT22;51453;47.738;7.420;2023-03-01T01:28:29;-2.60;99.90
64939;DHT22;51453;47.738;7.420;2023-03-01T01:30:55;-2.60;99.90
64939;DHT22;51453;47.738;7.420;2023-03-01T01:33:20;-2.70;99.90
64939;DHT22;51453;47.738;7.420;2023-03-01T01:35:46;-2.70;99.90
64939;DHT22;51453;47.738;7.420;2023-03-01T01:38:11;-2.70;99.90
64939;DHT22;51453;47.738;7.420;2023-03-01T01:40:44;-2.70;99.90
64939;DHT22;51453;47.738;7.420;2023-03-01T01:43:25;-2.70;99.90
64939;DHT22;51453;47.738;7.420;2023-03-01T01:45:55;-2.70;99.90
64939;DHT22;51453;47.738;7.420;2023-03-01T01:48:24;-2.70;99.90
64939;DHT22;51453;47.738;7.420;2023-03-01T01:51:09;-2.70;99.90
64939;DHT22;51453;47.738;7.420;2023-03-01T01:53:37;-2.70;99.90
64939;DHT22;51453;47.738;7.420;2023-03-01T01:56:06;-2.70;99.90
64939;DHT22;51453;47.738;7.420;2023-03-01T01:58:32;-2.70;99.90
64939;DHT22;51453;47.738;7.420;2023-03-01T02:00:58;-2.70;99.90
64939;DHT22;51453;47.738;7.420;2023-03-01T02:03:29;-2.60;99.90
64939;DHT22;51453;47.738;7.420;2023-03-01T02:06:19;-2.60;99.90
64939;DHT22;51453;47.738;7.420;2023-03-01T02:08:48;-2.60;99.90
64939;DHT22;51453;47.738;7.420;2023-03-01T02:11:14;-2.60;99.90
64939;DHT22;51453;47.738;7.420;2023-03-01T02:13:40;-2.70;99.90
64939;DHT22;51453;47.738;7.420;2023-03-01T02:16:11;-2.70;99.90
64939;DHT22;51453;47.738;7.420;2023-03-01T02:18:39;-2.70;99.90
64939;DHT22;51453;47.738;7.420;2023-03-01T02:26:51;-2.80;99.90
64939;DHT22;51453;47.738;7.420;2023-03-01T02:29:21;-2.90;99.90
64939;DHT22;51453;47.738;7.420;2023-03-01T02:31:47;-2.90;99.90
64939;DHT22;51453;47.738;7.420;2023-03-01T02:34:19;-3.00;99.90
64939;DHT22;51453;47.738;7.420;2023-03-01T02:36:49;-3.00;99.90
64939;DHT22;51453;47.738;7.420;2023-03-01T02:39:30;-3.00;99.90
64939;DHT22;51453;47.738;7.420;2023-03-01T02:41:57;-3.00;99.90
64939;DHT22;51453;47.738;7.420;2023-03-01T02:44:24;-3.00;99.90
64939;DHT22;51453;47.738;7.420;2023-03-01T02:46:55;-3.00;99.90
64939;DHT22;51453;47.738;7.420;2023-03-01T02:49:27;-3.00;99.90
64939;DHT22;51453;47.738;7.420;2023-03-01T02:55:06;-3.00;99.90
64939;DHT22;51453;47.738;7.420;2023-03-01T02:57:36;-2.90;99.90
64939;DHT22;51453;47.738;7.420;2023-03-01T03:00:12;-2.90;99.90
64939;DHT22;51453;47.738;7.420;2023-03-01T03:02:54;-2.90;99.90
64939;DHT22;51453;47.738;7.420;2023-03-01T03:05:30;-3.00;99.90
64939;DHT22;51453;47.738;7.420;2023-03-01T03:07:57;-2.90;99.90
64939;DHT22;51453;47.738;7.420;2023-03-01T03:10:28;-2.90;99.90
64939;DHT22;51453;47.738;7.420;2023-03-01T03:12:57;-2.90;99.90
64939;DHT22;51453;47.738;7.420;2023-03-01T03:15:25;-2.90;99.90
64939;DHT22;51453;47.738;7.420;2023-03-01T03:17:52;-2.90;99.90
64939;DHT22;51453;47.738;7.420;2023-03-01T03:20:20;-2.90;99.90
64939;DHT22;51453;47.738;7.420;2023-03-01T03:22:49;-2.80;99.90
64939;DHT22;51453;47.738;7.420;2023-03-01T03:25:16;-2.80;99.90
64939;DHT22;51453;47.738;7.420;2023-03-01T03:27:43;-2.80;99.90
64939;DHT22;51453;47.738;7.420;2023-03-01T03:30:11;-2.80;99.90
64939;DHT22;51453;47.738;7.420;2023-03-01T03:32:42;-2.80;99.90
64939;DHT22;51453;47.738;7.420;2023-03-01T03:35:24;-2.80;99.90
64939;DHT22;51453;47.738;7.420;2023-03-01T03:37:51;-2.80;99.90
64939;DHT22;51453;47.738;7.420;2023-03-01T03:42:56;-2.70;99.90
64939;DHT22;51453;47.738;7.420;2023-03-01T03:45:22;-2.80;99.90
64939;DHT22;51453;47.738;7.420;2023-03-01T03:47:47;-2.80;99.90
64939;DHT22;51453;47.738;7.420;2023-03-01T03:50:14;-2.80;99.90
64939;DHT22;51453;47.738;7.420;2023-03-01T03:52:40;-2.80;99.90
64939;DHT22;51453;47.738;7.420;2023-03-01T03:55:08;-2.80;99.90
64939;DHT22;51453;47.738;7.420;2023-03-01T03:57:41;-2.80;99.90
64939;DHT22;51453;47.738;7.420;2023-03-01T04:00:11;-2.80;99.90
64939;DHT22;51453;47.738;7.420;2023-03-01T04:02:40;-2.90;99.90
64939;DHT22;51453;47.738;7.420;2023-03-01T04:05:10;-2.90;99.90
64939;DHT22;51453;47.738;7.420;2023-03-01T04:07:37;-3.00;99.90
64939;DHT22;51453;47.738;7.420;2023-03-01T04:10:12;-3.00;99.90
64939;DHT22;51453;47.738;7.420;2023-03-01T04:12:41;-3.00;99.90
64939;DHT22;51453;47.738;7.420;2023-03-01T04:15:11;-3.00;99.90
64939;DHT22;51453;47.738;7.420;2023-03-01T04:17:41;-3.00;99.90
64939;DHT22;51453;47.738;7.420;2023-03-01T04:20:16;-3.00;99.90
64939;DHT22;51453;47.738;7.420;2023-03-01T04:23:10;-3.00;99.90
64939;DHT22;51453;47.738;7.420;2023-03-01T04:28:19;-3.10;99.90
64939;DHT22;51453;47.738;7.420;2023-03-01T04:30:45;-3.10;99.90
64939;DHT22;51453;47.738;7.420;2023-03-01T04:33:11;-3.00;99.90
64939;DHT22;51453;47.738;7.420;2023-03-01T04:35:37;-3.00;99.90
64939;DHT22;51453;47.738;7.420;2023-03-01T04:38:04;-3.10;99.90
64939;DHT22;51453;47.738;7.420;2023-03-01T04:40:30;-3.10;99.90
64939;DHT22;51453;47.738;7.420;2023-03-01T04:42:56;-3.10;99.90
64939;DHT22;51453;47.738;7.420;2023-03-01T04:45:22;-3.10;99.90
64939;DHT22;51453;47.738;7.420;2023-03-01T04:47:48;-3.20;99.90
64939;DHT22;51453;47.738;7.420;2023-03-01T04:50:16;-3.20;99.90
64939;DHT22;51453;47.738;7.420;2023-03-01T04:52:43;-3.20;99.90
64939;DHT22;51453;47.738;7.420;2023-03-01T04:55:09;-3.20;99.90
64939;DHT22;51453;47.738;7.420;2023-03-01T04:57:35;-3.20;99.90
64939;DHT22;51453;47.738;7.420;2023-03-01T05:00:02;-3.20;99.90
64939;DHT22;51453;47.738;7.420;2023-03-01T05:02:59;-3.20;99.90
64939;DHT22;51453;47.738;7.420;2023-03-01T05:07:53;-3.20;99.90
64939;DHT22;51453;47.738;7.420;2023-03-01T05:10:20;-3.20;99.90
64939;DHT22;51453;47.738;7.420;2023-03-01T05:12:45;-3.20;99.90
64939;DHT22;51453;47.738;7.420;2023-03-01T05:15:14;-3.20;99.90
64939;DHT22;51453;47.738;7.420;2023-03-01T05:17:40;-3.20;99.90
64939;DHT22;51453;47.738;7.420;2023-03-01T05:20:06;-3.20;99.90
64939;DHT22;51453;47.738;7.420;2023-03-01T05:22:35;-3.20;99.90
64939;DHT22;51453;47.738;7.420;2023-03-01T05:25:02;-3.20;99.90
64939;DHT22;51453;47.738;7.420;2023-03-01T05:27:27;-3.20;99.90
64939;DHT22;51453;47.738;7.420;2023-03-01T05:29:55;-3.20;99.90
64939;DHT22;51453;47.738;7.420;2023-03-01T05:32:21;-3.20;99.90
64939;DHT22;51453;47.738;7.420;2023-03-01T05:34:46;-3.20;99.90
64939;DHT22;51453;47.738;7.420;2023-03-01T05:37:15;-3.10;99.90
64939;DHT22;51453;47.738;7.420;2023-03-01T05:39:41;-3.10;99.90
64939;DHT22;51453;47.738;7.420;2023-03-01T05:42:10;-3.20;99.90
64939;DHT22;51453;47.738;7.420;2023-03-01T05:44:36;-3.10;99.90
64939;DHT22;51453;47.738;7.420;2023-03-01T05:47:02;-3.20;99.90
64939;DHT22;51453;47.738;7.420;2023-03-01T05:49:28;-3.10;99.90
64939;DHT22;51453;47.738;7.420;2023-03-01T05:51:54;-3.10;99.90
64939;DHT22;51453;47.738;7.420;2023-03-01T05:54:21;-3.10;99.90
64939;DHT22;51453;47.738;7.420;2023-03-01T05:56:47;-3.10;99.90
64939;DHT22;51453;47.738;7.420;2023-03-01T05:59:13;-3.10;99.90
64939;DHT22;51453;47.738;7.420;2023-03-01T06:01:39;-3.10;99.90
64939;DHT22;51453;47.738;7.420;2023-03-01T06:04:05;-3.10;99.90
64939;DHT22;51453;47.738;7.420;2023-03-01T06:06:34;-3.10;99.90
64939;DHT22;51453;47.738;7.420;2023-03-01T06:09:03;-3.10;99.90
64939;DHT22;51453;47.738;7.420;2023-03-01T06:11:29;-3.10;99.90
64939;DHT22;51453;47.738;7.420;2023-03-01T06:13:54;-3.20;99.90
64939;DHT22;51453;47.738;7.420;2023-03-01T06:16:20;-3.20;99.90
64939;DHT22;51453;47.738;7.420;2023-03-01T06:18:45;-3.20;99.90
64939;DHT22;51453;47.738;7.420;2023-03-01T06:21:11;-3.30;99.90
64939;DHT22;51453;47.738;7.420;2023-03-01T06:23:37;-3.20;99.90
64939;DHT22;51453;47.738;7.420;2023-03-01T06:26:09;-3.20;99.90
64939;DHT22;51453;47.738;7.420;2023-03-01T06:28:35;-3.20;99.90
64939;DHT22;51453;47.738;7.420;2023-03-01T06:31:01;-3.20;99.90
64939;DHT22;51453;47.738;7.420;2023-03-01T06:33:27;-3.10;99.90
64939;DHT22;51453;47.738;7.420;2023-03-01T06:35:55;-3.00;99.90
64939;DHT22;51453;47.738;7.420;2023-03-01T06:38:23;-3.00;99.90
64939;DHT22;51453;47.738;7.420;2023-03-01T06:40:53;-3.00;99.90
64939;DHT22;51453;47.738;7.420;2023-03-01T06:43:22;-3.00;99.90
64939;DHT22;51453;47.738;7.420;2023-03-01T06:45:49;-2.90;99.90
64939;DHT22;51453;47.738;7.420;2023-03-01T06:48:17;-2.90;99.90
64939;DHT22;51453;47.738;7.420;2023-03-01T06:50:43;-2.90;99.90
64939;DHT22;51453;47.738;7.420;2023-03-01T06:53:09;-2.80;99.90
64939;DHT22;51453;47.738;7.420;2023-03-01T06:55:34;-2.70;99.90
64939;DHT22;51453;47.738;7.420;2023-03-01T06:58:02;-2.70;99.90
64939;DHT22;51453;47.738;7.420;2023-03-01T07:00:28;-2.70;99.90
64939;DHT22;51453;47.738;7.420;2023-03-01T07:02:54;-2.70;99.90
64939;DHT22;51453;47.738;7.420;2023-03-01T07:05:20;-2.60;99.90
64939;DHT22;51453;47.738;7.420;2023-03-01T07:07:46;-2.60;99.90
64939;DHT22;51453;47.738;7.420;2023-03-01T07:10:12;-2.60;99.90
64939;DHT22;51453;47.738;7.420;2023-03-01T07:12:38;-2.60;99.90
64939;DHT22;51453;47.738;7.420;2023-03-01T07:15:04;-2.60;99.90
64939;DHT22;51453;47.738;7.420;2023-03-01T07:17:30;-2.40;99.90
64939;DHT22;51453;47.738;7.420;2023-03-01T07:19:56;-2.40;99.90
64939;DHT22;51453;47.738;7.420;2023-03-01T07:22:22;-2.40;99.90
64939;DHT22;51453;47.738;7.420;2023-03-01T07:24:47;-2.30;99.90
64939;DHT22;51453;47.738;7.420;2023-03-01T07:27:13;-2.20;99.90
64939;DHT22;51453;47.738;7.420;2023-03-01T07:29:39;-2.20;99.90
64939;DHT22;51453;47.738;7.420;2023-03-01T07:32:05;-2.10;99.90
64939;DHT22;51453;47.738;7.420;2023-03-01T07:34:31;-1.90;99.90
64939;DHT22;51453;47.738;7.420;2023-03-01T07:36:57;-1.80;99.90
64939;DHT22;51453;47.738;7.420;2023-03-01T07:39:22;-1.60;99.90
64939;DHT22;51453;47.738;7.420;2023-03-01T07:41:51;-1.50;99.90
64939;DHT22;51453;47.738;7.420;2023-03-01T07:44:16;-1.30;99.90
64939;DHT22;51453;47.738;7.420;2023-03-01T07:46:43;-1.30;99.90
64939;DHT22;51453;47.738;7.420;2023-03-01T07:49:09;-1.30;99.90
64939;DHT22;51453;47.738;7.420;2023-03-01T07:51:35;-1.30;99.90
64939;DHT22;51453;47.738;7.420;2023-03-01T07:54:01;-1.20;99.90
64939;DHT22;51453;47.738;7.420;2023-03-01T07:56:26;-1.10;99.90
64939;DHT22;51453;47.738;7.420;2023-03-01T07:58:52;-1.00;99.90
64939;DHT22;51453;47.738;7.420;2023-03-01T08:01:22;-1.10;99.90
64939;DHT22;51453;47.738;7.420;2023-03-01T08:03:48;-0.90;99.90
64939;DHT22;51453;47.738;7.420;2023-03-01T08:06:16;-0.90;99.90
64939;DHT22;51453;47.738;7.420;2023-03-01T08:08:42;-0.70;99.90
64939;DHT22;51453;47.738;7.420;2023-03-01T08:11:10;-0.70;99.90
64939;DHT22;51453;47.738;7.420;2023-03-01T08:13:36;-0.70;99.90
64939;DHT22;51453;47.738;7.420;2023-03-01T08:16:07;-0.60;99.90
64939;DHT22;51453;47.738;7.420;2023-03-01T08:18:33;-0.60;99.90
64939;DHT22;51453;47.738;7.420;2023-03-01T08:21:08;-0.40;99.90
64939;DHT22;51453;47.738;7.420;2023-03-01T08:23:34;-0.30;99.90
64939;DHT22;51453;47.738;7.420;2023-03-01T08:26:09;-0.10;99.90
64939;DHT22;51453;47.738;7.420;2023-03-01T08:28:35;0.00;99.90
64939;DHT22;51453;47.738;7.420;2023-03-01T08:31:01;0.00;99.90
64939;DHT22;51453;47.738;7.420;2023-03-01T08:33:27;0.10;99.90
64939;DHT22;51453;47.738;7.420;2023-03-01T08:35:52;0.00;99.90
64939;DHT22;51453;47.738;7.420;2023-03-01T08:38:18;0.10;99.90
64939;DHT22;51453;47.738;7.420;2023-03-01T08:40:44;0.20;99.90
64939;DHT22;51453;47.738;7.420;2023-03-01T08:43:09;0.30;99.90
64939;DHT22;51453;47.738;7.420;2023-03-01T08:45:36;0.10;99.90
64939;DHT22;51453;47.738;7.420;2023-03-01T08:48:02;0.30;99.90
64939;DHT22;51453;47.738;7.420;2023-03-01T08:50:28;0.20;99.90
64939;DHT22;51453;47.738;7.420;2023-03-01T08:52:53;0.20;99.90
64939;DHT22;51453;47.738;7.420;2023-03-01T08:55:19;0.30;99.90
64939;DHT22;51453;47.738;7.420;2023-03-01T08:57:44;0.50;99.90
64939;DHT22;51453;47.738;7.420;2023-03-01T09:00:10;0.40;99.90
64939;DHT22;51453;47.738;7.420;2023-03-01T09:02:36;0.70;99.90
64939;DHT22;51453;47.738;7.420;2023-03-01T09:05:02;0.70;99.90
64939;DHT22;51453;47.738;7.420;2023-03-01T09:07:28;0.80;99.90
64939;DHT22;51453;47.738;7.420;2023-03-01T09:09:54;0.90;99.90
64939;DHT22;51453;47.738;7.420;2023-03-01T09:12:20;1.00;99.90
64939;DHT22;51453;47.738;7.420;2023-03-01T09:14:46;1.00;99.90
64939;DHT22;51453;47.738;7.420;2023-03-01T09:17:12;1.20;99.90
64939;DHT22;51453;47.738;7.420;2023-03-01T09:19:37;1.00;99.90
64939;DHT22;51453;47.738;7.420;2023-03-01T09:22:04;1.20;99.90
64939;DHT22;51453;47.738;7.420;2023-03-01T09:24:29;1.40;99.90
64939;DHT22;51453;47.738;7.420;2023-03-01T09:26:55;1.20;99.90
64939;DHT22;51453;47.738;7.420;2023-03-01T09:29:21;1.60;99.90
64939;DHT22;51453;47.738;7.420;2023-03-01T09:31:47;1.70;99.90
64939;DHT22;51453;47.738;7.420;2023-03-01T09:34:13;1.80;99.90
64939;DHT22;51453;47.738;7.420;2023-03-01T09:36:44;1.90;99.90
64939;DHT22;51453;47.738;7.420;2023-03-01T09:39:10;2.20;99.90
64939;DHT22;51453;47.738;7.420;2023-03-01T09:41:38;2.00;99.90
64939;DHT22;51453;47.738;7.420;2023-03-01T09:47:00;2.20;99.90
64939;DHT22;51453;47.738;7.420;2023-03-01T09:49:28;2.20;99.90
64939;DHT22;51453;47.738;7.420;2023-03-01T09:52:06;2.30;99.90
64939;DHT22;51453;47.738;7.420;2023-03-01T09:54:34;2.30;99.90
64939;DHT22;51453;47.738;7.420;2023-03-01T09:57:11;2.40;99.90
64939;DHT22;51453;47.738;7.420;2023-03-01T09:59:52;2.30;99.90
64939;DHT22;51453;47.738;7.420;2023-03-01T10:02:35;2.40;99.90
64939;DHT22;51453;47.738;7.420;2023-03-01T10:07:45;2.50;99.90
64939;DHT22;51453;47.738;7.420;2023-03-01T10:10:33;2.40;99.90
64939;DHT22;51453;47.738;7.420;2023-03-01T10:13:08;2.60;99.90
64939;DHT22;51453;47.738;7.420;2023-03-01T10:15:40;2.70;99.90
64939;DHT22;51453;47.738;7.420;2023-03-01T10:18:16;3.10;99.90
64939;DHT22;51453;47.738;7.420;2023-03-01T10:20:51;3.00;99.90
64939;DHT22;51453;47.738;7.420;2023-03-01T10:23:17;2.80;99.90
64939;DHT22;51453;47.738;7.420;2023-03-01T10:28:44;3.30;99.90
64939;DHT22;51453;47.738;7.420;2023-03-01T10:31:17;3.50;99.90
64939;DHT22;51453;47.738;7.420;2023-03-01T10:33:44;3.60;99.90
64939;DHT22;51453;47.738;7.420;2023-03-01T10:36:10;3.50;99.90
64939;DHT22;51453;47.738;7.420;2023-03-01T10:38:56;3.50;99.90
64939;DHT22;51453;47.738;7.420;2023-03-01T10:41:23;3.60;99.90
64939;DHT22;51453;47.738;7.420;2023-03-01T10:43:51;4.10;99.90
64939;DHT22;51453;47.738;7.420;2023-03-01T10:46:34;4.40;99.90
64939;DHT22;51453;47.738;7.420;2023-03-01T10:49:16;4.10;99.90
64939;DHT22;51453;47.738;7.420;2023-03-01T10:51:45;3.90;99.90
64939;DHT22;51453;47.738;7.420;2023-03-01T10:56:51;3.90;99.90
64939;DHT22;51453;47.738;7.420;2023-03-01T10:59:34;4.20;99.90
64939;DHT22;51453;47.738;7.420;2023-03-01T11:04:34;4.70;99.90
64939;DHT22;51453;47.738;7.420;2023-03-01T11:07:02;4.50;99.90
64939;DHT22;51453;47.738;7.420;2023-03-01T11:09:32;4.60;99.90
64939;DHT22;51453;47.738;7.420;2023-03-01T11:12:05;4.60;99.90
64939;DHT22;51453;47.738;7.420;2023-03-01T11:14:39;4.80;99.90
64939;DHT22;51453;47.738;7.420;2023-03-01T11:17:27;4.60;99.90
64939;DHT22;51453;47.738;7.420;2023-03-01T11:20:17;4.90;99.90
64939;DHT22;51453;47.738;7.420;2023-03-01T11:22:53;5.30;99.90
64939;DHT22;51453;47.738;7.420;2023-03-01T11:25:24;5.60;99.90
64939;DHT22;51453;47.738;7.420;2023-03-01T11:27:52;5.60;99.90
64939;DHT22;51453;47.738;7.420;2023-03-01T11:38:34;5.20;99.90
64939;DHT22;51453;47.738;7.420;2023-03-01T11:41:20;5.40;99.90
64939;DHT22;51453;47.738;7.420;2023-03-01T11:58:05;6.10;99.90
64939;DHT22;51453;47.738;7.420;2023-03-01T12:06:18;6.00;99.90
64939;DHT22;51453;47.738;7.420;2023-03-01T12:08:51;6.20;99.90
64939;DHT22;51453;47.738;7.420;2023-03-01T12:17:18;5.90;99.90
64939;DHT22;51453;47.738;7.420;2023-03-01T12:35:44;6.30;99.90
64939;DHT22;51453;47.738;7.420;2023-03-01T12:47:02;5.70;99.90
64939;DHT22;51453;47.738;7.420;2023-03-01T12:49:52;5.30;99.90
64939;DHT22;51453;47.738;7.420;2023-03-01T12:54:57;5.40;99.90
64939;DHT22;51453;47.738;7.420;2023-03-01T12:57:28;5.60;99.90
64939;DHT22;51453;47.738;7.420;2023-03-01T13:06:22;5.80;99.90
64939;DHT22;51453;47.738;7.420;2023-03-01T13:09:05;5.80;99.90
64939;DHT22;51453;47.738;7.420;2023-03-01T13:11:33;5.80;99.90
64939;DHT22;51453;47.738;7.420;2023-03-01T13:14:35;5.70;99.90
64939;DHT22;51453;47.738;7.420;2023-03-01T13:17:01;5.70;99.90
64939;DHT22;51453;47.738;7.420;2023-03-01T13:19:30;5.70;99.90
64939;DHT22;51453;47.738;7.420;2023-03-01T13:21:57;5.70;99.90
64939;DHT22;51453;47.738;7.420;2023-03-01T13:24:39;5.90;99.90
64939;DHT22;51453;47.738;7.420;2023-03-01T13:27:19;6.00;99.90
64939;DHT22;51453;47.738;7.420;2023-03-01T13:29:52;6.20;99.90
64939;DHT22;51453;47.738;7.420;2023-03-01T13:35:02;6.10;99.90
64939;DHT22;51453;47.738;7.420;2023-03-01T13:37:35;6.10;99.90
64939;DHT22;51453;47.738;7.420;2023-03-01T13:40:05;6.40;99.90
64939;DHT22;51453;47.738;7.420;2023-03-01T13:42:38;6.40;99.90
64939;DHT22;51453;47.738;7.420;2023-03-01T13:45:20;6.40;99.90
64939;DHT22;51453;47.738;7.420;2023-03-01T13:47:50;6.50;99.90
64939;DHT22;51453;47.738;7.420;2023-03-01T13:50:36;6.80;99.90
64939;DHT22;51453;47.738;7.420;2023-03-01T13:53:06;6.90;99.90
64939;DHT22;51453;47.738;7.420;2023-03-01T13:55:42;7.00;99.90
64939;DHT22;51453;47.738;7.420;2023-03-01T14:01:03;7.00;99.90
64939;DHT22;51453;47.738;7.420;2023-03-01T14:03:30;7.00;99.90
64939;DHT22;51453;47.738;7.420;2023-03-01T14:08:28;7.00;99.90
64939;DHT22;51453;47.738;7.420;2023-03-01T14:13:48;7.00;99.90
64939;DHT22;51453;47.738;7.420;2023-03-01T14:16:26;7.00;99.90
64939;DHT22;51453;47.738;7.420;2023-03-01T14:21:32;6.90;99.90
64939;DHT22;51453;47.738;7.420;2023-03-01T14:23:58;6.90;99.90
64939;DHT22;51453;47.738;7.420;2023-03-01T14:26:24;6.80;99.90
64939;DHT22;51453;47.738;7.420;2023-03-01T14:28:50;6.80;99.90
64939;DHT22;51453;47.738;7.420;2023-03-01T14:31:38;6.90;99.90
64939;DHT22;51453;47.738;7.420;2023-03-01T14:34:05;6.80;99.90
64939;DHT22;51453;47.738;7.420;2023-03-01T14:36:33;6.70;99.90
64939;DHT22;51453;47.738;7.420;2023-03-01T14:38:59;6.70;99.90
64939;DHT22;51453;47.738;7.420;2023-03-01T14:41:34;6.70;99.90
64939;DHT22;51453;47.738;7.420;2023-03-01T14:44:02;6.80;99.90
64939;DHT22;51453;47.738;7.420;2023-03-01T14:46:37;6.70;99.90
64939;DHT22;51453;47.738;7.420;2023-03-01T14:51:39;6.90;99.90
64939;DHT22;51453;47.738;7.420;2023-03-01T14:54:27;6.90;99.90
64939;DHT22;51453;47.738;7.420;2023-03-01T14:56:58;6.80;99.90
64939;DHT22;51453;47.738;7.420;2023-03-01T14:59:25;6.60;99.90
64939;DHT22;51453;47.738;7.420;2023-03-01T15:01:53;6.50;99.90
64939;DHT22;51453;47.738;7.420;2023-03-01T15:04:22;6.40;99.90
64939;DHT22;51453;47.738;7.420;2023-03-01T15:06:55;6.30;99.90
64939;DHT22;51453;47.738;7.420;2023-03-01T15:09:29;6.30;99.90
64939;DHT22;51453;47.738;7.420;2023-03-01T15:11:57;6.20;99.90
64939;DHT22;51453;47.738;7.420;2023-03-01T15:14:43;6.10;99.90
64939;DHT22;51453;47.738;7.420;2023-03-01T15:17:41;6.10;99.90
64939;DHT22;51453;47.738;7.420;2023-03-01T15:20:16;6.10;99.90
64939;DHT22;51453;47.738;7.420;2023-03-01T15:22:45;5.90;99.90
64939;DHT22;51453;47.738;7.420;2023-03-01T15:25:27;5.90;99.90
64939;DHT22;51453;47.738;7.420;2023-03-01T15:27:56;5.80;99.90
64939;DHT22;51453;47.738;7.420;2023-03-01T15:30:29;5.70;99.90
64939;DHT22;51453;47.738;7.420;2023-03-01T15:35:54;5.60;99.90
64939;DHT22;51453;47.738;7.420;2023-03-01T15:38:35;5.50;99.90
64939;DHT22;51453;47.738;7.420;2023-03-01T15:41:21;5.40;99.90
64939;DHT22;51453;47.738;7.420;2023-03-01T15:43:48;5.30;99.90
64939;DHT22;51453;47.738;7.420;2023-03-01T15:46:27;5.30;99.90
64939;DHT22;51453;47.738;7.420;2023-03-01T15:48:59;5.30;99.90
64939;DHT22;51453;47.738;7.420;2023-03-01T15:51:36;5.30;99.90
64939;DHT22;51453;47.738;7.420;2023-03-01T15:54:17;5.20;99.90
64939;DHT22;51453;47.738;7.420;2023-03-01T15:56:43;5.10;99.90
64939;DHT22;51453;47.738;7.420;2023-03-01T15:59:10;5.10;99.90
64939;DHT22;51453;47.738;7.420;2023-03-01T16:01:43;5.00;99.90
64939;DHT22;51453;47.738;7.420;2023-03-01T16:04:13;5.00;99.90
64939;DHT22;51453;47.738;7.420;2023-03-01T16:06:52;5.00;99.90
64939;DHT22;51453;47.738;7.420;2023-03-01T16:09:22;5.00;99.90
64939;DHT22;51453;47.738;7.420;2023-03-01T16:11:49;4.90;99.90
64939;DHT22;51453;47.738;7.420;2023-03-01T16:14:15;4.70;99.90
64939;DHT22;51453;47.738;7.420;2023-03-01T16:16:42;4.70;99.90
64939;DHT22;51453;47.738;7.420;2023-03-01T16:19:11;4.70;99.90
64939;DHT22;51453;47.738;7.420;2023-03-01T16:21:37;4.50;99.90
64939;DHT22;51453;47.738;7.420;2023-03-01T16:24:03;4.40;99.90
64939;DHT22;51453;47.738;7.420;2023-03-01T16:26:29;4.30;99.90
64939;DHT22;51453;47.738;7.420;2023-03-01T16:28:56;4.20;99.90
64939;DHT22;51453;47.738;7.420;2023-03-01T16:31:23;4.10;99.90
64939;DHT22;51453;47.738;7.420;2023-03-01T16:33:49;4.00;99.90
64939;DHT22;51453;47.738;7.420;2023-03-01T16:36:18;3.90;99.90
64939;DHT22;51453;47.738;7.420;2023-03-01T16:38:47;3.80;99.90
64939;DHT22;51453;47.738;7.420;2023-03-01T16:41:16;3.70;99.90
64939;DHT22;51453;47.738;7.420;2023-03-01T16:43:43;3.60;99.90
64939;DHT22;51453;47.738;7.420;2023-03-01T16:46:13;3.60;99.90
64939;DHT22;51453;47.738;7.420;2023-03-01T16:48:39;3.60;99.90
64939;DHT22;51453;47.738;7.420;2023-03-01T16:51:06;3.60;99.90
64939;DHT22;51453;47.738;7.420;2023-03-01T16:53:36;3.50;99.90
64939;DHT22;51453;47.738;7.420;2023-03-01T16:56:03;3.50;99.90
64939;DHT22;51453;47.738;7.420;2023-03-01T16:58:30;3.40;99.90
64939;DHT22;51453;47.738;7.420;2023-03-01T17:00:56;3.40;99.90
64939;DHT22;51453;47.738;7.420;2023-03-01T17:03:23;3.20;99.90
64939;DHT22;51453;47.738;7.420;2023-03-01T17:05:50;3.10;99.90
64939;DHT22;51453;47.738;7.420;2023-03-01T17:08:16;3.00;99.90
64939;DHT22;51453;47.738;7.420;2023-03-01T17:10:42;2.80;99.90
64939;DHT22;51453;47.738;7.420;2023-03-01T17:13:08;2.60;99.90
64939;DHT22;51453;47.738;7.420;2023-03-01T17:15:37;2.50;99.90
64939;DHT22;51453;47.738;7.420;2023-03-01T17:18:03;2.40;99.90
64939;DHT22;51453;47.738;7.420;2023-03-01T17:20:28;2.20;99.90
64939;DHT22;51453;47.738;7.420;2023-03-01T17:22:54;2.00;99.90
64939;DHT22;51453;47.738;7.420;2023-03-01T17:25:20;1.80;99.90
64939;DHT22;51453;47.738;7.420;2023-03-01T17:27:45;1.80;99.90
64939;DHT22;51453;47.738;7.420;2023-03-01T17:30:13;1.70;99.90
64939;DHT22;51453;47.738;7.420;2023-03-01T17:32:39;1.70;99.90
64939;DHT22;51453;47.738;7.420;2023-03-01T17:35:05;1.80;99.90
64939;DHT22;51453;47.738;7.420;2023-03-01T17:37:32;1.80;99.90
64939;DHT22;51453;47.738;7.420;2023-03-01T17:39:58;1.90;99.90
64939;DHT22;51453;47.738;7.420;2023-03-01T17:42:24;1.90;99.90
64939;DHT22;51453;47.738;7.420;2023-03-01T17:44:49;1.90;99.90
64939;DHT22;51453;47.738;7.420;2023-03-01T17:47:18;2.00;99.90
64939;DHT22;51453;47.738;7.420;2023-03-01T17:49:44;1.90;99.90